createdAt,value
2018-07-14T00:00:31.079Z,312.00
2018-07-14T00:01:31.082Z,312.00
2018-07-14T00:02:31.107Z,316.00
2018-07-14T00:03:31.080Z,328.00
2018-07-14T00:04:31.132Z,340.00
2018-07-14T00:05:31.161Z,356.00
2018-07-14T00:06:31.195Z,376.00
2018-07-14T00:07:31.155Z,396.00
2018-07-14T00:08:31.218Z,412.00
2018-07-14T00:09:31.238Z,424.00
2018-07-14T00:10:31.271Z,436.00
2018-07-14T00:11:31.290Z,440.00
2018-07-14T00:12:31.289Z,460.00
2018-07-14T00:13:31.308Z,460.00
2018-07-14T00:14:31.310Z,460.00
2018-07-14T00:15:31.368Z,452.00
2018-07-14T00:16:31.384Z,456.00
2018-07-14T00:17:31.388Z,464.00
2018-07-14T00:18:31.366Z,456.00
2018-07-14T00:19:31.399Z,460.00
2018-07-14T00:20:31.438Z,460.00
2018-07-14T00:21:31.458Z,460.00
2018-07-14T00:22:31.441Z,456.00
2018-07-14T00:23:31.497Z,452.00
2018-07-14T00:24:31.518Z,440.00
2018-07-14T00:25:31.557Z,428.00
2018-07-14T00:26:31.527Z,408.00
2018-07-14T00:27:31.579Z,392.00
2018-07-14T00:28:31.615Z,372.00
2018-07-14T00:29:31.634Z,356.00
2018-07-14T00:30:31.653Z,344.00
2018-07-14T00:31:31.624Z,340.00
2018-07-14T00:32:31.670Z,332.00
2018-07-14T00:33:31.710Z,316.00
2018-07-14T00:34:31.686Z,300.00
2018-07-14T00:35:31.690Z,288.00
2018-07-14T00:36:31.769Z,284.00
2018-07-14T00:37:31.787Z,288.00
2018-07-14T00:38:31.747Z,292.00
2018-07-14T00:39:31.768Z,296.00
2018-07-14T00:40:31.844Z,300.00
2018-07-14T00:41:31.817Z,296.00
2018-07-14T00:42:31.846Z,292.00
2018-07-14T00:43:31.902Z,284.00
2018-07-14T00:44:31.874Z,268.00
2018-07-14T00:45:31.896Z,252.00
2018-07-14T00:46:31.967Z,240.00
2018-07-14T00:47:31.937Z,236.00
2018-07-14T00:48:31.961Z,232.00
2018-07-14T00:49:31.996Z,232.00
2018-07-14T00:50:32.035Z,224.00
2018-07-14T00:51:32.054Z,224.00
2018-07-14T00:52:32.030Z,220.00
2018-07-14T00:53:32.078Z,212.00
2018-07-14T00:54:32.053Z,212.00
2018-07-14T00:55:32.131Z,220.00
2018-07-14T00:56:32.103Z,236.00
2018-07-14T00:57:32.147Z,244.00
2018-07-14T00:58:32.139Z,256.00
2018-07-14T00:59:32.197Z,272.00
2018-07-14T01:00:32.227Z,284.00
2018-07-14T01:01:32.244Z,284.00
2018-07-14T01:02:32.218Z,288.00
2018-07-14T01:03:32.228Z,292.00
2018-07-14T01:04:32.304Z,308.00
2018-07-14T01:05:32.321Z,324.00
2018-07-14T01:06:32.304Z,344.00
2018-07-14T01:07:32.310Z,352.00
2018-07-14T01:09:01.076Z,372.00
2018-07-14T01:10:00.931Z,396.00
2018-07-14T01:11:53.844Z,460.00
2018-07-14T01:12:53.865Z,484.00
2018-07-14T01:14:46.990Z,544.00
2018-07-14T01:15:46.839Z,568.00
2018-07-14T01:17:39.721Z,588.00
2018-07-14T01:18:39.775Z,604.00
2018-07-14T01:20:32.833Z,636.00
2018-07-14T01:21:32.689Z,668.00
2018-07-14T01:23:25.603Z,756.00
2018-07-14T01:24:25.603Z,780.00
2018-07-14T01:26:18.664Z,824.00
2018-07-14T01:27:18.522Z,880.00
2018-07-14T01:29:11.469Z,936.00
2018-07-14T01:30:11.492Z,904.00
2018-07-14T01:32:04.550Z,796.00
2018-07-14T01:33:04.395Z,740.00
2018-07-14T01:34:57.357Z,624.00
2018-07-14T01:35:57.366Z,520.00
2018-07-14T01:37:57.948Z,384.00
2018-07-14T01:38:50.297Z,344.00
2018-07-14T01:40:43.233Z,284.00
2018-07-14T01:41:43.169Z,244.00
2018-07-14T01:43:36.290Z,188.00
2018-07-14T01:44:36.157Z,180.00
2018-07-14T01:46:29.028Z,168.00
2018-07-14T01:47:29.089Z,152.00
2018-07-14T01:49:22.070Z,144.00
2018-07-14T01:50:22.031Z,136.00
2018-07-14T01:52:14.944Z,116.00
2018-07-14T01:53:14.927Z,108.00
2018-07-14T01:55:13.764Z,92.00
2018-07-14T01:56:07.843Z,104.00
2018-07-14T01:58:00.806Z,120.00
2018-07-14T01:59:00.821Z,128.00
2018-07-14T02:00:53.913Z,148.00
2018-07-14T02:01:53.775Z,176.00
2018-07-14T02:03:46.684Z,204.00
2018-07-14T02:04:46.653Z,224.00
2018-07-14T02:06:42.318Z,248.00
2018-07-14T02:07:39.579Z,316.00
2018-07-14T02:09:32.542Z,356.00
2018-07-14T02:10:32.555Z,380.00
2018-07-14T02:12:25.749Z,532.00
2018-07-14T02:13:25.431Z,580.00
2018-07-14T02:15:18.393Z,764.00
2018-07-14T02:16:18.371Z,836.00
2018-07-14T02:18:11.418Z,840.00
2018-07-14T02:19:11.333Z,844.00
2018-07-14T02:21:04.201Z,920.00
2018-07-14T02:22:04.241Z,932.00
2018-07-14T02:23:57.768Z,1016.00
2018-07-14T02:24:57.143Z,1072.00
2018-07-14T02:26:50.059Z,1136.00
2018-07-14T02:27:50.129Z,1152.00
2018-07-14T02:29:43.157Z,1180.00
2018-07-14T02:30:43.025Z,1192.00
2018-07-14T02:32:35.948Z,1224.00
2018-07-14T02:33:35.975Z,1252.00
2018-07-14T02:35:28.977Z,1288.00
2018-07-14T02:36:28.902Z,1312.00
2018-07-14T02:38:21.817Z,1360.00
2018-07-14T02:39:21.830Z,1396.00
2018-07-14T02:41:15.423Z,1456.00
2018-07-14T02:42:14.747Z,1472.00
2018-07-14T02:44:07.665Z,1504.00
2018-07-14T02:45:07.660Z,1504.00
2018-07-14T02:47:00.683Z,1508.00
2018-07-14T02:48:00.620Z,1512.00
2018-07-14T02:49:53.514Z,1520.00
2018-07-14T02:50:53.527Z,1520.00
2018-07-14T02:52:46.521Z,1512.00
2018-07-14T02:53:46.431Z,1504.00
2018-07-14T02:55:39.396Z,1484.00
2018-07-14T02:56:39.361Z,1472.00
2018-07-14T02:58:43.037Z,1460.00
2018-07-14T02:59:32.299Z,1440.00
2018-07-14T03:01:25.204Z,1388.00
2018-07-14T03:02:25.252Z,1376.00
2018-07-14T03:04:18.470Z,1380.00
2018-07-14T03:05:18.193Z,1384.00
2018-07-14T03:07:11.087Z,1304.00
2018-07-14T03:08:11.124Z,1248.00
2018-07-14T03:10:04.182Z,1184.00
2018-07-14T03:11:04.006Z,1204.00
2018-07-14T03:12:57.022Z,1232.00
2018-07-14T03:13:56.935Z,1224.00
2018-07-14T03:15:50.040Z,1216.00
2018-07-14T03:16:49.911Z,1240.00
2018-07-14T03:18:42.825Z,1264.00
2018-07-14T03:19:42.818Z,1256.00
2018-07-14T03:21:35.962Z,1280.00
2018-07-14T03:22:35.779Z,1292.00
2018-07-14T03:24:28.667Z,1236.00
2018-07-14T03:25:28.647Z,1208.00
2018-07-14T03:27:21.959Z,1344.00
2018-07-14T03:28:21.682Z,1400.00
2018-07-14T03:30:14.548Z,1456.00
2018-07-14T03:31:14.571Z,1476.00
2018-07-14T03:33:07.867Z,1612.00
2018-07-14T03:34:07.474Z,1696.00
2018-07-14T03:36:00.407Z,1688.00
2018-07-14T03:37:00.376Z,1640.00
2018-07-14T03:38:53.446Z,1532.00
2018-07-14T03:39:53.305Z,1516.00
2018-07-14T03:41:46.830Z,1504.00
2018-07-14T03:42:46.233Z,1488.00
2018-07-14T03:44:44.420Z,1488.00
2018-07-14T03:45:39.211Z,1496.00
2018-07-14T03:47:32.110Z,1468.00
2018-07-14T03:48:32.095Z,1440.00
2018-07-14T03:50:25.218Z,1460.00
2018-07-14T03:51:43.810Z,1600.00
2018-07-14T03:52:43.760Z,1596.00
2018-07-14T03:54:36.675Z,1700.00
2018-07-14T03:55:36.718Z,1776.00
2018-07-14T03:57:56.569Z,1756.00
2018-07-14T03:58:29.672Z,1720.00
2018-07-14T04:00:22.589Z,1772.00
2018-07-14T04:01:22.560Z,1876.00
2018-07-14T04:03:15.663Z,1948.00
2018-07-14T04:04:15.500Z,1940.00
2018-07-14T04:06:08.454Z,1968.00
2018-07-14T04:07:08.447Z,1968.00
2018-07-14T04:09:01.735Z,1896.00
2018-07-14T04:10:01.409Z,1824.00
2018-07-14T04:11:54.329Z,1816.00
2018-07-14T04:12:54.343Z,1780.00
2018-07-14T04:14:47.425Z,1700.00
2018-07-14T04:15:47.276Z,1672.00
2018-07-14T04:17:40.257Z,1684.00
2018-07-14T04:18:40.185Z,1608.00
2018-07-14T04:20:33.237Z,1292.00
2018-07-14T04:21:33.133Z,1228.00
2018-07-14T04:23:26.041Z,1380.00
2018-07-14T04:24:26.111Z,1488.00
2018-07-14T04:26:19.184Z,1376.00
2018-07-14T04:27:18.967Z,1496.00
2018-07-14T04:29:11.887Z,1572.00
2018-07-14T04:30:11.889Z,1580.00
2018-07-14T04:32:05.007Z,1616.00
2018-07-14T04:33:04.836Z,1716.00
2018-07-14T04:34:57.844Z,1912.00
2018-07-14T04:35:57.913Z,1968.00
2018-07-14T04:37:50.938Z,2068.00
2018-07-14T04:38:50.765Z,2112.00
2018-07-14T04:40:43.686Z,2160.00
2018-07-14T04:41:43.733Z,2128.00
2018-07-14T04:43:36.815Z,2060.00
2018-07-14T04:44:36.677Z,2168.00
2018-07-14T04:46:29.609Z,2204.00
2018-07-14T04:47:29.566Z,2236.00
2018-07-14T04:49:40.745Z,2208.00
2018-07-14T04:50:22.550Z,2216.00
2018-07-14T04:52:15.471Z,2216.00
2018-07-14T04:53:15.540Z,2092.00
2018-07-14T04:55:08.798Z,1724.00
2018-07-14T04:56:08.386Z,1724.00
2018-07-14T04:58:01.306Z,1760.00
2018-07-14T04:59:01.363Z,1748.00
2018-07-14T05:00:54.612Z,1744.00
2018-07-14T05:01:54.260Z,1732.00
2018-07-14T05:03:47.218Z,1780.00
2018-07-14T05:04:47.233Z,1736.00
2018-07-14T05:06:40.422Z,1748.00
2018-07-14T05:07:40.167Z,1740.00
2018-07-14T05:09:33.090Z,1732.00
2018-07-14T05:10:33.102Z,1696.00
2018-07-14T05:12:26.149Z,1716.00
2018-07-14T05:13:26.022Z,1728.00
2018-07-14T05:15:19.481Z,1876.00
2018-07-14T05:16:18.959Z,2012.00
2018-07-14T05:18:12.208Z,2060.00
2018-07-14T05:19:11.849Z,2072.00
2018-07-14T05:21:04.808Z,2404.00
2018-07-14T05:22:04.797Z,2404.00
2018-07-14T05:23:58.075Z,2396.00
2018-07-14T05:24:57.732Z,2296.00
2018-07-14T05:26:51.232Z,2244.00
2018-07-14T05:27:50.716Z,2236.00
2018-07-14T05:29:43.775Z,2280.00
2018-07-14T05:30:43.680Z,2316.00
2018-07-14T05:32:36.621Z,2396.00
2018-07-14T05:33:36.572Z,2452.00
2018-07-14T05:35:29.610Z,2360.00
2018-07-14T05:36:29.484Z,2444.00
2018-07-14T05:38:22.960Z,2336.00
2018-07-14T05:39:22.426Z,2232.00
2018-07-14T05:41:15.415Z,2092.00
2018-07-14T05:42:15.348Z,2040.00
2018-07-14T05:44:08.347Z,1932.00
2018-07-14T05:45:08.319Z,1860.00
2018-07-14T05:47:01.371Z,1880.00
2018-07-14T05:48:01.276Z,1920.00
2018-07-14T05:49:54.214Z,1832.00
2018-07-14T05:50:54.211Z,1720.00
2018-07-14T05:52:47.427Z,1548.00
2018-07-14T05:53:47.158Z,1464.00
2018-07-14T05:55:40.022Z,1168.00
2018-07-14T05:56:40.039Z,1064.00
2018-07-14T05:58:33.172Z,960.00
2018-07-14T05:59:33.029Z,932.00
2018-07-14T06:01:25.900Z,916.00
2018-07-14T06:02:25.912Z,908.00
2018-07-14T06:04:18.976Z,920.00
2018-07-14T06:05:18.897Z,936.00
2018-07-14T06:07:11.832Z,1004.00
2018-07-14T06:08:11.851Z,1036.00
2018-07-14T06:10:04.863Z,1060.00
2018-07-14T06:11:04.774Z,1056.00
2018-07-14T06:12:57.731Z,1080.00
2018-07-14T06:13:57.720Z,1104.00
2018-07-14T06:15:50.725Z,1200.00
2018-07-14T06:16:50.649Z,1380.00
2018-07-14T06:18:43.549Z,1864.00
2018-07-14T06:19:43.586Z,2648.00
2018-07-14T06:21:36.627Z,2172.00
2018-07-14T06:22:36.546Z,2192.00
2018-07-14T06:24:29.419Z,2204.00
2018-07-14T06:25:29.480Z,2228.00
2018-07-14T06:27:23.114Z,2236.00
2018-07-14T06:28:22.427Z,2276.00
2018-07-14T06:30:15.308Z,2316.00
2018-07-14T06:31:15.313Z,2356.00
2018-07-14T06:33:08.437Z,2496.00
2018-07-14T06:34:08.252Z,2524.00
2018-07-14T06:36:01.232Z,2372.00
2018-07-14T06:37:01.237Z,2160.00
2018-07-14T06:38:54.887Z,1980.00
2018-07-14T06:39:54.183Z,1944.00
2018-07-14T06:41:47.082Z,1756.00
2018-07-14T06:42:47.120Z,1728.00
2018-07-14T06:44:40.447Z,1668.00
2018-07-14T06:45:40.118Z,1588.00
2018-07-14T06:47:32.938Z,1304.00
2018-07-14T06:48:32.975Z,1160.00
2018-07-14T06:50:54.608Z,984.00
2018-07-14T06:51:25.933Z,960.00
2018-07-14T06:53:18.800Z,936.00
2018-07-14T06:54:18.949Z,912.00
2018-07-14T06:56:12.664Z,780.00
2018-07-14T06:57:11.774Z,748.00
2018-07-14T06:59:04.677Z,800.00
2018-07-14T07:00:04.740Z,840.00
2018-07-14T07:01:57.869Z,892.00
2018-07-14T07:02:57.729Z,880.00
2018-07-14T07:04:50.589Z,836.00
2018-07-14T07:05:50.609Z,800.00
2018-07-14T07:07:43.884Z,704.00
2018-07-14T07:08:43.564Z,616.00
2018-07-14T07:10:36.467Z,488.00
2018-07-14T07:11:36.499Z,488.00
2018-07-14T07:13:29.538Z,652.00
2018-07-14T07:14:29.443Z,804.00
2018-07-14T07:16:22.347Z,1048.00
2018-07-14T07:17:22.399Z,1120.00
2018-07-14T07:19:15.371Z,1056.00
2018-07-14T07:20:15.330Z,1040.00
2018-07-14T07:22:08.236Z,1016.00
2018-07-14T07:23:08.220Z,956.00
2018-07-14T07:25:02.395Z,784.00
2018-07-14T07:26:01.162Z,664.00
2018-07-14T07:27:54.122Z,548.00
2018-07-14T07:28:54.201Z,532.00
2018-07-14T07:30:54.968Z,500.00
2018-07-14T07:31:47.058Z,440.00
2018-07-14T07:33:39.949Z,384.00
2018-07-14T07:34:40.076Z,384.00
2018-07-14T07:36:54.048Z,392.00
2018-07-14T07:37:32.941Z,388.00
2018-07-14T07:39:25.874Z,372.00
2018-07-14T07:40:25.890Z,384.00
2018-07-14T07:43:50.576Z,548.00
2018-07-14T07:44:50.440Z,544.00
2018-07-14T07:46:43.378Z,448.00
2018-07-14T07:47:43.355Z,432.00
2018-07-14T07:49:36.513Z,412.00
2018-07-14T07:50:36.464Z,392.00
2018-07-14T07:52:29.371Z,372.00
2018-07-14T07:53:29.401Z,392.00
2018-07-14T07:55:22.470Z,456.00
2018-07-14T07:56:22.340Z,452.00
2018-07-14T07:58:15.306Z,492.00
2018-07-14T07:59:15.324Z,468.00
2018-07-14T08:01:08.483Z,436.00
2018-07-14T08:02:08.256Z,508.00
2018-07-14T08:04:01.175Z,620.00
2018-07-14T08:05:01.147Z,620.00
2018-07-14T08:06:54.454Z,624.00
2018-07-14T08:07:54.200Z,616.00
2018-07-14T08:09:46.984Z,564.00
2018-07-14T08:10:47.064Z,496.00
2018-07-14T08:12:40.091Z,340.00
2018-07-14T08:13:39.996Z,252.00
2018-07-14T08:15:32.911Z,164.00
2018-07-14T08:16:32.928Z,148.00
2018-07-14T08:18:25.971Z,148.00
2018-07-14T08:19:25.845Z,144.00
2018-07-14T08:21:18.736Z,164.00
2018-07-14T08:22:18.868Z,188.00
2018-07-14T08:24:11.742Z,224.00
2018-07-14T08:25:11.719Z,228.00
2018-07-14T08:27:04.590Z,200.00
2018-07-14T08:28:04.652Z,184.00
2018-07-14T08:29:57.679Z,156.00
2018-07-14T08:30:57.600Z,140.00
2018-07-14T08:32:50.468Z,132.00
2018-07-14T08:33:50.477Z,136.00
2018-07-14T08:35:43.573Z,136.00
2018-07-14T08:36:43.468Z,140.00
2018-07-14T08:38:36.386Z,136.00
2018-07-14T08:39:36.400Z,128.00
2018-07-14T08:41:29.400Z,116.00
2018-07-14T08:42:29.274Z,116.00
2018-07-14T08:44:22.763Z,120.00
2018-07-14T08:45:22.271Z,116.00
2018-07-14T08:47:15.267Z,104.00
2018-07-14T08:48:15.203Z,100.00
2018-07-14T08:50:08.120Z,100.00
2018-07-14T08:51:08.154Z,96.00
2018-07-14T08:53:01.177Z,104.00
2018-07-14T08:54:01.068Z,104.00
2018-07-14T08:55:53.982Z,100.00
2018-07-14T08:56:53.999Z,92.00
2018-07-14T08:58:47.058Z,80.00
2018-07-14T08:59:46.883Z,76.00
2018-07-14T09:01:40.818Z,76.00
2018-07-14T09:02:40.804Z,80.00
2018-07-14T09:04:34.034Z,84.00
2018-07-14T09:05:33.732Z,84.00
2018-07-14T09:07:26.690Z,84.00
2018-07-14T09:08:26.713Z,84.00
2018-07-14T09:10:19.887Z,76.00
2018-07-14T09:11:19.638Z,68.00
2018-07-14T09:13:12.558Z,68.00
2018-07-14T09:14:12.523Z,64.00
2018-07-14T09:16:05.635Z,60.00
2018-07-14T09:17:05.460Z,64.00
2018-07-14T09:18:58.391Z,64.00
2018-07-14T09:19:58.405Z,60.00
2018-07-14T09:21:51.362Z,60.00
2018-07-14T09:22:51.311Z,64.00
2018-07-14T09:24:44.376Z,64.00
2018-07-14T09:25:44.344Z,68.00
2018-07-14T09:27:37.628Z,72.00
2018-07-14T09:28:37.265Z,68.00
2018-07-14T09:30:30.235Z,68.00
2018-07-14T09:31:30.250Z,68.00
2018-07-14T09:33:49.382Z,72.00
2018-07-14T09:34:23.177Z,76.00
2018-07-14T09:36:16.080Z,80.00
2018-07-14T09:37:16.094Z,80.00
2018-07-14T09:39:09.123Z,72.00
2018-07-14T09:40:09.052Z,68.00
2018-07-14T09:42:01.930Z,68.00
2018-07-14T09:43:01.968Z,72.00
2018-07-14T09:44:54.960Z,72.00
2018-07-14T09:45:54.879Z,72.00
2018-07-14T09:47:47.806Z,72.00
2018-07-14T09:48:47.782Z,72.00
2018-07-14T09:50:40.832Z,72.00
2018-07-14T09:51:40.713Z,72.00
2018-07-14T09:53:33.655Z,72.00
2018-07-14T09:54:33.679Z,68.00
2018-07-14T09:56:27.232Z,72.00
2018-07-14T09:57:26.624Z,64.00
2018-07-14T09:59:19.500Z,64.00
2018-07-14T10:00:19.507Z,60.00
2018-07-14T10:02:15.659Z,60.00
2018-07-14T10:03:12.489Z,60.00
2018-07-14T10:05:05.352Z,60.00
2018-07-14T10:06:05.477Z,52.00
2018-07-14T10:07:59.220Z,52.00
2018-07-14T10:08:58.293Z,52.00
2018-07-14T10:10:51.260Z,48.00
2018-07-14T10:11:51.224Z,48.00
2018-07-14T10:13:44.443Z,40.00
2018-07-14T10:14:44.150Z,36.00
2018-07-14T10:16:37.114Z,36.00
2018-07-14T10:17:37.071Z,32.00
2018-07-14T10:19:30.313Z,28.00
2018-07-14T10:20:30.176Z,28.00
2018-07-14T10:22:23.177Z,28.00
2018-07-14T10:23:23.080Z,24.00
2018-07-14T10:25:16.933Z,24.00
2018-07-14T10:26:16.066Z,28.00
2018-07-14T10:28:08.978Z,20.00
2018-07-14T10:29:09.049Z,24.00
2018-07-14T10:31:01.924Z,20.00
2018-07-14T10:32:01.862Z,24.00
2018-07-14T10:33:01.928Z,20.00
2018-07-14T10:34:01.961Z,20.00
2018-07-14T10:35:01.977Z,20.00
2018-07-14T10:36:01.958Z,20.00
2018-07-14T10:37:01.986Z,20.00
2018-07-14T10:38:02.032Z,20.00
2018-07-14T10:39:02.050Z,20.00
2018-07-14T10:40:02.032Z,20.00
2018-07-14T10:41:02.041Z,20.00
2018-07-14T10:42:02.103Z,24.00
2018-07-14T10:43:02.114Z,20.00
2018-07-14T10:44:02.096Z,20.00
2018-07-14T10:45:02.121Z,20.00
2018-07-14T10:46:02.142Z,16.00
2018-07-14T10:47:02.197Z,16.00
2018-07-14T10:48:02.219Z,4.00
2018-07-14T10:49:02.189Z,16.00
2018-07-14T10:50:02.252Z,16.00
2018-07-14T10:51:02.272Z,20.00
2018-07-14T10:52:02.244Z,20.00
2018-07-14T10:53:02.308Z,16.00
2018-07-14T10:54:02.281Z,16.00
2018-07-14T10:55:02.332Z,16.00
2018-07-14T10:56:02.349Z,16.00
2018-07-14T10:57:02.335Z,16.00
2018-07-14T10:58:02.375Z,16.00
2018-07-14T10:59:02.401Z,16.00
2018-07-14T11:00:02.445Z,16.00
2018-07-14T11:01:02.461Z,12.00
2018-07-14T11:02:02.474Z,16.00
2018-07-14T11:03:02.478Z,16.00
2018-07-14T11:04:02.493Z,16.00
2018-07-14T11:05:02.483Z,12.00
2018-07-14T11:06:02.547Z,12.00
2018-07-14T11:07:02.544Z,12.00
2018-07-14T11:08:02.566Z,12.00
2018-07-14T11:09:02.560Z,12.00
2018-07-14T11:10:02.573Z,12.00
2018-07-14T11:11:02.639Z,8.00
2018-07-14T11:12:02.666Z,8.00
2018-07-14T11:13:02.681Z,8.00
2018-07-14T11:14:02.673Z,8.00
2018-07-14T11:15:02.694Z,12.00
2018-07-14T11:16:02.713Z,12.00
2018-07-14T11:17:02.703Z,12.00
2018-07-14T11:18:02.750Z,8.00
2018-07-14T11:19:02.748Z,12.00
2018-07-14T11:20:02.803Z,8.00
2018-07-14T11:21:02.764Z,12.00
2018-07-14T11:22:02.782Z,8.00
2018-07-14T11:23:02.858Z,12.00
2018-07-14T11:24:02.887Z,12.00
2018-07-14T11:25:02.837Z,8.00
2018-07-14T11:26:02.872Z,8.00
2018-07-14T11:27:02.933Z,12.00
2018-07-14T11:28:02.891Z,8.00
2018-07-14T11:29:02.952Z,4.00
2018-07-14T11:30:02.987Z,4.00
2018-07-14T11:31:02.958Z,4.00
2018-07-14T11:32:03.007Z,4.00
2018-07-14T11:33:03.044Z,4.00
2018-07-14T11:34:03.003Z,4.00
2018-07-14T11:35:03.020Z,4.00
2018-07-14T11:36:03.075Z,4.00
2018-07-14T11:37:03.116Z,0.00
2018-07-14T11:38:03.136Z,4.00
2018-07-14T11:39:03.105Z,0.00
2018-07-14T11:40:03.157Z,4.00
2018-07-14T11:41:03.140Z,0.00
2018-07-14T11:42:03.236Z,0.00
2018-07-14T11:43:03.182Z,0.00
2018-07-14T11:44:03.228Z,4.00
2018-07-14T11:45:03.226Z,0.00
2018-07-14T11:46:03.237Z,4.00
2018-07-14T11:47:03.304Z,4.00
2018-07-14T11:48:03.307Z,0.00
2018-07-14T11:49:03.318Z,0.00
2018-07-14T11:50:03.337Z,0.00
2018-07-14T11:51:03.375Z,4.00
2018-07-14T11:52:03.395Z,4.00
2018-07-14T11:53:03.389Z,0.00
2018-07-14T11:54:03.408Z,0.00
2018-07-14T11:55:03.451Z,0.00
2018-07-14T11:56:03.468Z,0.00
2018-07-14T11:57:03.473Z,0.00
2018-07-14T11:58:03.483Z,0.00
2018-07-14T11:59:03.499Z,0.00
2018-07-14T12:00:03.482Z,0.00
2018-07-14T12:01:03.512Z,0.00
2018-07-14T12:02:03.612Z,0.00
2018-07-14T12:03:03.597Z,0.00
2018-07-14T12:04:03.599Z,0.00
2018-07-14T12:05:03.637Z,0.00
2018-07-14T12:06:03.656Z,0.00
2018-07-14T12:07:03.654Z,0.00
2018-07-14T12:08:03.639Z,4.00
2018-07-14T12:09:03.708Z,0.00
2018-07-14T12:10:03.714Z,0.00
2018-07-14T12:11:03.700Z,0.00
2018-07-14T12:12:03.720Z,0.00
2018-07-14T12:13:03.736Z,0.00
2018-07-14T12:14:03.801Z,0.00
2018-07-14T12:15:03.775Z,0.00
2018-07-14T12:16:03.779Z,0.00
2018-07-14T12:17:05.201Z,0.00
2018-07-14T12:18:03.877Z,0.00
2018-07-14T12:19:03.894Z,0.00
2018-07-14T12:20:03.898Z,0.00
2018-07-14T12:21:03.932Z,0.00
2018-07-14T12:22:03.904Z,0.00
2018-07-14T12:23:03.922Z,0.00
2018-07-14T12:24:03.987Z,0.00
2018-07-14T12:25:03.987Z,0.00
2018-07-14T12:26:03.975Z,0.00
2018-07-14T12:27:03.993Z,0.00
2018-07-14T12:28:04.015Z,0.00
2018-07-14T12:29:04.031Z,0.00
2018-07-14T12:30:04.053Z,0.00
2018-07-14T12:31:04.116Z,0.00
2018-07-14T12:32:04.121Z,0.00
2018-07-14T12:33:04.141Z,0.00
2018-07-14T12:34:04.125Z,0.00
2018-07-14T12:35:04.191Z,0.00
2018-07-14T12:36:04.210Z,0.00
2018-07-14T12:37:04.229Z,0.00
2018-07-14T12:38:04.233Z,0.00
2018-07-14T12:39:04.220Z,0.00
2018-07-14T12:40:04.286Z,0.00
2018-07-14T12:41:04.301Z,0.00
2018-07-14T12:42:04.288Z,0.00
2018-07-14T12:43:04.329Z,0.00
2018-07-14T12:44:04.338Z,0.00
2018-07-14T12:45:04.381Z,0.00
2018-07-14T12:46:04.394Z,0.00
2018-07-14T12:47:04.397Z,0.00
2018-07-14T12:48:04.396Z,0.00
2018-07-14T12:49:04.435Z,0.00
2018-07-14T12:50:04.469Z,0.00
2018-07-14T12:51:04.440Z,0.00
2018-07-14T12:52:04.481Z,0.00
2018-07-14T12:53:04.502Z,0.00
2018-07-14T12:54:04.496Z,0.00
2018-07-14T12:55:04.571Z,0.00
2018-07-14T12:56:04.594Z,0.00
2018-07-14T12:57:04.551Z,0.00
2018-07-14T12:58:04.569Z,0.00
2018-07-14T12:59:04.591Z,0.00
2018-07-14T13:00:04.691Z,0.00
2018-07-14T13:01:04.623Z,0.00
2018-07-14T13:02:04.643Z,0.00
2018-07-14T13:03:04.710Z,0.00
2018-07-14T13:04:04.734Z,0.00
2018-07-14T13:05:04.696Z,0.00
2018-07-14T13:06:04.716Z,0.00
2018-07-14T13:07:04.743Z,0.00
2018-07-14T13:08:04.799Z,0.00
2018-07-14T13:09:04.815Z,0.00
2018-07-14T13:10:04.835Z,0.00
2018-07-14T13:11:04.802Z,0.00
2018-07-14T13:12:04.822Z,0.00
2018-07-14T13:13:04.911Z,0.00
2018-07-14T13:14:04.864Z,0.00
2018-07-14T13:15:04.913Z,0.00
2018-07-14T13:16:04.929Z,0.00
2018-07-14T13:17:04.993Z,0.00
2018-07-14T13:18:04.984Z,0.00
2018-07-14T13:19:05.782Z,0.00
2018-07-14T13:20:05.070Z,0.00
2018-07-14T13:21:05.039Z,0.00
2018-07-14T13:22:05.025Z,0.00
2018-07-14T13:23:05.023Z,0.00
2018-07-14T13:24:05.070Z,0.00
2018-07-14T13:25:05.064Z,0.00
2018-07-14T13:26:05.774Z,0.00
2018-07-14T13:27:05.152Z,0.00
2018-07-14T13:28:05.156Z,0.00
2018-07-14T13:29:05.176Z,0.00
2018-07-14T13:30:05.246Z,0.00
2018-07-14T13:31:05.243Z,0.00
2018-07-14T13:32:05.235Z,0.00
2018-07-14T13:33:05.228Z,0.00
2018-07-14T13:34:05.257Z,0.00
2018-07-14T13:35:05.322Z,0.00
2018-07-14T13:36:05.272Z,0.00
2018-07-14T13:37:05.294Z,4.00
2018-07-14T13:38:05.319Z,4.00
2018-07-14T13:39:05.426Z,4.00
2018-07-14T13:40:05.404Z,0.00
2018-07-14T13:41:05.367Z,0.00
2018-07-14T13:42:05.445Z,0.00
2018-07-14T13:43:05.431Z,0.00
2018-07-14T13:44:05.415Z,0.00
2018-07-14T13:45:05.493Z,0.00
2018-07-14T13:46:05.499Z,0.00
2018-07-14T13:47:05.539Z,4.00
2018-07-14T13:48:05.528Z,4.00
2018-07-14T13:49:05.504Z,4.00
2018-07-14T13:50:05.574Z,4.00
2018-07-14T13:51:05.569Z,4.00
2018-07-14T13:52:05.576Z,4.00
2018-07-14T13:53:05.637Z,4.00
2018-07-14T13:54:05.663Z,0.00
2018-07-14T13:55:05.642Z,0.00
2018-07-14T13:56:05.652Z,4.00
2018-07-14T13:57:05.649Z,4.00
2018-07-14T13:58:05.714Z,0.00
2018-07-14T13:59:05.715Z,4.00
2018-07-14T14:00:05.748Z,4.00
2018-07-14T14:01:05.779Z,4.00
2018-07-14T14:02:05.805Z,4.00
2018-07-14T14:03:05.777Z,4.00
2018-07-14T14:04:05.840Z,4.00
2018-07-14T14:05:05.845Z,4.00
2018-07-14T14:06:05.864Z,4.00
2018-07-14T14:07:05.896Z,4.00
2018-07-14T14:08:05.839Z,4.00
2018-07-14T14:09:05.892Z,4.00
2018-07-14T14:10:05.944Z,4.00
2018-07-14T14:11:05.968Z,4.00
2018-07-14T14:12:05.988Z,4.00
2018-07-14T14:13:05.991Z,4.00
2018-07-14T14:14:05.970Z,4.00
2018-07-14T14:15:06.049Z,4.00
2018-07-14T14:16:06.033Z,4.00
2018-07-14T14:17:06.037Z,4.00
2018-07-14T14:18:06.047Z,4.00
2018-07-14T14:19:06.118Z,4.00
2018-07-14T14:20:06.174Z,0.00
2018-07-14T14:21:06.154Z,4.00
2018-07-14T14:22:06.169Z,4.00
2018-07-14T14:23:06.180Z,4.00
2018-07-14T14:24:06.131Z,4.00
2018-07-14T14:25:06.177Z,4.00
2018-07-14T14:26:06.220Z,4.00
2018-07-14T14:27:06.267Z,4.00
2018-07-14T14:28:06.267Z,4.00
2018-07-14T14:29:06.251Z,4.00
2018-07-14T14:30:06.308Z,8.00
2018-07-14T14:31:06.319Z,4.00
2018-07-14T14:32:06.298Z,0.00
2018-07-14T14:33:06.384Z,4.00
2018-07-14T14:34:06.379Z,0.00
2018-07-14T14:35:06.413Z,0.00
2018-07-14T14:36:06.419Z,0.00
2018-07-14T14:37:06.375Z,4.00
2018-07-14T14:38:06.433Z,4.00
2018-07-14T14:39:06.471Z,4.00
2018-07-14T14:40:06.486Z,0.00
2018-07-14T14:41:06.481Z,0.00
2018-07-14T14:42:06.524Z,4.00
2018-07-14T14:43:06.505Z,0.00
2018-07-14T14:44:06.519Z,8.00
2018-07-14T14:45:06.547Z,0.00
2018-07-14T14:46:06.631Z,0.00
2018-07-14T14:47:06.598Z,0.00
2018-07-14T14:48:06.597Z,0.00
2018-07-14T14:49:06.585Z,0.00
2018-07-14T14:50:06.666Z,4.00
2018-07-14T14:51:06.683Z,0.00
2018-07-14T14:52:06.676Z,8.00
2018-07-14T14:53:06.682Z,4.00
2018-07-14T14:54:06.712Z,0.00
2018-07-14T14:55:06.750Z,4.00
2018-07-14T14:56:06.738Z,0.00
2018-07-14T14:57:06.863Z,0.00
2018-07-14T14:58:06.833Z,4.00
2018-07-14T14:59:06.829Z,4.00
2018-07-14T15:00:06.836Z,0.00
2018-07-14T15:01:06.885Z,0.00
2018-07-14T15:02:06.861Z,0.00
2018-07-14T15:03:06.868Z,4.00
2018-07-14T15:04:06.861Z,0.00
2018-07-14T15:05:06.899Z,4.00
2018-07-14T15:06:06.911Z,4.00
2018-07-14T15:07:06.945Z,4.00
2018-07-14T15:08:07.014Z,0.00
2018-07-14T15:09:07.025Z,0.00
2018-07-14T15:10:07.041Z,4.00
2018-07-14T15:11:07.041Z,4.00
2018-07-14T15:12:07.032Z,4.00
2018-07-14T15:13:07.093Z,4.00
2018-07-14T15:14:07.118Z,0.00
2018-07-14T15:15:07.070Z,0.00
2018-07-14T15:16:07.088Z,4.00
2018-07-14T15:17:07.103Z,4.00
2018-07-14T15:18:07.124Z,4.00
2018-07-14T15:19:07.157Z,4.00
2018-07-14T15:20:07.221Z,0.00
2018-07-14T15:21:07.240Z,0.00
2018-07-14T15:22:07.209Z,0.00
2018-07-14T15:23:07.270Z,0.00
2018-07-14T15:24:07.259Z,4.00
2018-07-14T15:25:07.250Z,4.00
2018-07-14T15:26:07.282Z,0.00
2018-07-14T15:27:07.329Z,0.00
2018-07-14T15:28:07.300Z,0.00
2018-07-14T15:29:07.337Z,0.00
2018-07-14T15:30:07.379Z,4.00
2018-07-14T15:31:07.406Z,0.00
2018-07-14T15:32:07.422Z,0.00
2018-07-14T15:33:07.574Z,4.00
2018-07-14T15:34:07.404Z,4.00
2018-07-14T15:35:07.486Z,0.00
2018-07-14T15:36:07.469Z,4.00